createdAt,value
2018-08-18T00:00:01.672Z,5.00
2018-08-18T00:01:01.665Z,6.80
2018-08-18T00:02:01.649Z,5.10
2018-08-18T00:03:01.640Z,6.40
2018-08-18T00:04:01.656Z,6.10
2018-08-18T00:05:01.620Z,4.50
2018-08-18T00:06:01.606Z,4.60
2018-08-18T00:07:01.606Z,5.60
2018-08-18T00:08:01.583Z,4.80
2018-08-18T00:09:01.594Z,4.60
2018-08-18T00:10:01.563Z,5.30
2018-08-18T00:11:01.550Z,5.70
2018-08-18T00:12:01.542Z,5.20
2018-08-18T00:13:01.556Z,4.60
2018-08-18T00:14:01.517Z,5.80
2018-08-18T00:15:01.509Z,4.90
2018-08-18T00:16:01.495Z,5.00
2018-08-18T00:17:01.485Z,4.70
2018-08-18T00:18:01.498Z,5.00
2018-08-18T00:19:01.463Z,4.60
2018-08-18T00:20:01.458Z,4.40
2018-08-18T00:21:01.477Z,4.90
2018-08-18T00:22:01.432Z,6.20
2018-08-18T00:23:01.422Z,4.90
2018-08-18T00:24:01.408Z,5.60
2018-08-18T00:25:01.398Z,5.50
2018-08-18T00:26:01.446Z,5.40
2018-08-18T00:27:01.395Z,4.90
2018-08-18T00:28:01.391Z,5.50
2018-08-18T00:29:01.428Z,5.40
2018-08-18T00:30:01.342Z,6.10
2018-08-18T00:31:01.353Z,5.70
2018-08-18T00:32:01.326Z,6.00
2018-08-18T00:33:01.348Z,5.40
2018-08-18T00:34:01.310Z,5.20
2018-08-18T00:35:01.288Z,5.70
2018-08-18T00:36:01.298Z,5.30
2018-08-18T00:37:01.265Z,5.40
2018-08-18T00:38:01.256Z,6.90
2018-08-18T00:39:01.244Z,6.20
2018-08-18T00:40:01.281Z,6.00
2018-08-18T00:41:01.230Z,5.30
2018-08-18T00:42:01.216Z,5.00
2018-08-18T00:43:01.231Z,5.40
2018-08-18T00:44:01.189Z,5.20
2018-08-18T00:45:01.177Z,5.70
2018-08-18T00:46:01.166Z,5.20
2018-08-18T00:47:01.154Z,5.00
2018-08-18T00:48:01.195Z,5.50
2018-08-18T00:49:01.133Z,5.10
2018-08-18T00:50:01.127Z,5.50
2018-08-18T00:51:01.111Z,5.10
2018-08-18T00:52:01.100Z,6.30
2018-08-18T00:53:01.110Z,6.00
2018-08-18T00:54:01.077Z,5.90
2018-08-18T00:55:01.071Z,6.20
2018-08-18T00:56:01.064Z,5.70
2018-08-18T00:57:01.045Z,5.70
2018-08-18T00:58:01.067Z,5.60
2018-08-18T00:59:01.028Z,5.60
2018-08-18T01:00:01.020Z,5.50
2018-08-18T01:01:01.001Z,6.00
2018-08-18T01:02:00.991Z,7.50
2018-08-18T01:03:01.005Z,6.80
2018-08-18T01:04:00.975Z,7.90
2018-08-18T01:05:00.966Z,6.00
2018-08-18T01:06:00.946Z,6.00
2018-08-18T01:07:00.935Z,6.80
2018-08-18T01:08:00.944Z,6.50
2018-08-18T01:09:00.934Z,7.20
2018-08-18T01:10:00.926Z,6.40
2018-08-18T01:11:00.991Z,5.70
2018-08-18T01:12:01.011Z,6.70
2018-08-18T01:13:00.998Z,6.30
2018-08-18T01:14:01.038Z,6.10
2018-08-18T01:15:00.870Z,7.40
2018-08-18T01:16:00.837Z,5.90
2018-08-18T01:17:00.826Z,6.90
2018-08-18T01:18:00.814Z,6.20
2018-08-18T01:19:00.824Z,6.70
2018-08-18T01:20:00.792Z,6.80
2018-08-18T01:21:00.782Z,6.80
2018-08-18T01:22:00.777Z,6.30
2018-08-18T01:23:00.759Z,7.20
2018-08-18T01:24:00.776Z,7.20
2018-08-18T01:25:00.737Z,6.50
2018-08-18T01:26:00.750Z,6.20
2018-08-18T01:27:00.753Z,6.90
2018-08-18T01:28:00.708Z,7.30
2018-08-18T01:29:00.694Z,6.50
2018-08-18T01:30:00.684Z,6.90
2018-08-18T01:31:00.697Z,8.70
2018-08-18T01:32:00.663Z,6.70
2018-08-18T01:33:00.653Z,6.20
2018-08-18T01:34:00.638Z,6.90
2018-08-18T01:35:00.651Z,7.70
2018-08-18T01:36:00.638Z,7.00
2018-08-18T01:37:00.605Z,7.70
2018-08-18T01:38:00.597Z,7.30
2018-08-18T01:39:00.583Z,7.40
2018-08-18T01:40:00.572Z,6.80
2018-08-18T01:41:00.589Z,7.30
2018-08-18T01:42:00.549Z,7.20
2018-08-18T01:43:00.543Z,7.20
2018-08-18T01:44:00.529Z,6.70
2018-08-18T01:45:00.516Z,7.60
2018-08-18T01:46:00.529Z,7.20
2018-08-18T01:47:00.495Z,8.90
2018-08-18T01:48:00.505Z,8.90
2018-08-18T01:49:00.472Z,9.40
2018-08-18T01:50:00.465Z,7.00
2018-08-18T01:51:00.458Z,6.80
2018-08-18T01:52:00.439Z,7.10
2018-08-18T01:53:00.458Z,9.00
2018-08-18T01:54:00.419Z,7.50
2018-08-18T01:55:00.407Z,8.40
2018-08-18T01:56:00.396Z,8.10
2018-08-18T01:57:00.384Z,6.90
2018-08-18T01:58:00.395Z,8.90
2018-08-18T01:59:00.363Z,7.70
2018-08-18T02:00:00.353Z,7.80
2018-08-18T02:01:00.340Z,8.20
2018-08-18T02:02:00.329Z,8.30
2018-08-18T02:03:00.341Z,8.10
2018-08-18T02:04:00.307Z,8.50
2018-08-18T02:05:00.296Z,8.80
2018-08-18T02:06:00.288Z,7.60
2018-08-18T02:07:00.294Z,9.80
2018-08-18T02:08:00.267Z,8.70
2018-08-18T02:09:00.254Z,9.10
2018-08-18T02:10:00.262Z,9.30
2018-08-18T02:11:00.230Z,9.90
2018-08-18T02:12:00.239Z,8.60
2018-08-18T02:13:00.208Z,9.50
2018-08-18T02:14:00.197Z,8.40
2018-08-18T02:15:00.207Z,10.10
2018-08-18T02:16:00.199Z,9.50
2018-08-18T02:17:00.204Z,10.60
2018-08-18T02:18:00.156Z,8.30
2018-08-18T02:19:00.144Z,9.00
2018-08-18T02:20:00.194Z,9.20
2018-08-18T02:21:00.125Z,9.80
2018-08-18T02:22:00.148Z,8.70
2018-08-18T02:23:00.099Z,9.30
2018-08-18T02:24:00.120Z,9.40
2018-08-18T02:25:00.083Z,9.30
2018-08-18T02:26:00.065Z,9.20
2018-08-18T02:27:00.054Z,8.90
2018-08-18T02:28:00.045Z,9.40
2018-08-18T02:29:00.063Z,10.20
2018-08-18T02:30:00.021Z,8.70
2018-08-18T02:31:00.011Z,9.10
2018-08-18T02:32:00.002Z,9.50
2018-08-18T02:32:59.990Z,9.00
2018-08-18T02:34:00.015Z,9.60
2018-08-18T02:34:59.971Z,9.10
2018-08-18T02:35:59.956Z,8.90
2018-08-18T02:36:59.950Z,8.70
2018-08-18T02:37:59.933Z,9.10
2018-08-18T02:38:59.943Z,10.50
2018-08-18T02:39:59.966Z,9.20
2018-08-18T02:40:59.928Z,9.10
2018-08-18T02:41:59.888Z,9.30
2018-08-18T02:42:59.877Z,9.80
2018-08-18T02:43:59.868Z,9.80
2018-08-18T02:44:59.860Z,9.50
2018-08-18T02:45:59.874Z,9.30
2018-08-18T02:46:59.836Z,9.70
2018-08-18T02:47:59.826Z,9.40
2018-08-18T02:48:59.816Z,9.30
2018-08-18T02:49:59.801Z,9.60
2018-08-18T02:50:59.841Z,10.90
2018-08-18T02:51:59.811Z,10.10
2018-08-18T02:52:59.768Z,10.10
2018-08-18T02:53:59.760Z,9.40
2018-08-18T02:54:59.746Z,9.40
2018-08-18T02:55:59.734Z,9.50
2018-08-18T02:56:59.749Z,9.50
2018-08-18T02:57:59.712Z,10.10
2018-08-18T02:58:59.702Z,9.80
2018-08-18T02:59:59.691Z,11.10
2018-08-18T03:00:59.679Z,10.40
2018-08-18T03:01:59.690Z,11.10
2018-08-18T03:02:59.695Z,9.50
2018-08-18T03:03:59.646Z,10.20
2018-08-18T03:04:59.635Z,10.10
2018-08-18T03:05:59.625Z,12.30
2018-08-18T03:06:59.643Z,10.50
2018-08-18T03:07:59.682Z,9.60
2018-08-18T03:08:59.595Z,10.20
2018-08-18T03:09:59.585Z,10.10
2018-08-18T03:10:59.573Z,10.50
2018-08-18T03:11:59.589Z,10.40
2018-08-18T03:12:59.547Z,10.90
2018-08-18T03:13:59.536Z,11.20
2018-08-18T03:14:59.525Z,11.50
2018-08-18T03:15:59.513Z,10.40
2018-08-18T03:16:59.541Z,10.60
2018-08-18T03:17:59.491Z,10.70
2018-08-18T03:18:59.483Z,10.50
2018-08-18T03:19:59.470Z,10.50
2018-08-18T03:20:59.460Z,11.40
2018-08-18T03:21:59.471Z,11.20
2018-08-18T03:22:59.441Z,10.60
2018-08-18T03:23:59.453Z,10.90
2018-08-18T03:24:59.415Z,11.20
2018-08-18T03:25:59.404Z,10.90
2018-08-18T03:26:59.392Z,10.40
2018-08-18T03:27:59.403Z,11.70
2018-08-18T03:28:59.432Z,10.50
2018-08-18T03:29:59.360Z,10.10
2018-08-18T03:30:59.349Z,10.60
2018-08-18T03:31:59.345Z,11.30
2018-08-18T03:32:59.347Z,11.90
2018-08-18T03:33:59.319Z,11.10
2018-08-18T03:34:59.331Z,11.20
2018-08-18T03:35:59.293Z,11.20
2018-08-18T03:36:59.282Z,10.50
2018-08-18T03:37:59.270Z,11.00
2018-08-18T03:38:59.281Z,11.50
2018-08-18T03:39:59.270Z,11.10
2018-08-18T03:40:59.241Z,11.50
2018-08-18T03:41:59.227Z,11.10
2018-08-18T03:42:59.216Z,11.90
2018-08-18T03:43:59.208Z,11.40
2018-08-18T03:44:59.216Z,11.30
2018-08-18T03:45:59.183Z,10.70
2018-08-18T03:46:59.185Z,11.50
2018-08-18T03:47:59.161Z,11.70
2018-08-18T03:48:59.151Z,10.70
2018-08-18T03:49:59.148Z,10.30
2018-08-18T03:50:59.128Z,11.00
2018-08-18T03:51:59.136Z,12.00
2018-08-18T03:52:59.106Z,11.60
2018-08-18T03:53:59.095Z,13.90
2018-08-18T03:54:59.084Z,12.80
2018-08-18T03:55:59.073Z,13.20
2018-08-18T03:56:59.083Z,13.00
2018-08-18T03:57:59.051Z,13.40
2018-08-18T03:58:59.040Z,12.50
2018-08-18T03:59:59.070Z,12.70
2018-08-18T04:00:59.027Z,11.90
2018-08-18T04:01:59.154Z,13.10
2018-08-18T04:02:58.995Z,11.70
2018-08-18T04:03:59.068Z,11.30
2018-08-18T04:04:58.977Z,12.50
2018-08-18T04:05:58.979Z,11.90
2018-08-18T04:06:58.999Z,13.10
2018-08-18T04:07:58.940Z,14.20
2018-08-18T04:08:59.031Z,12.20
2018-08-18T04:09:58.923Z,12.40
2018-08-18T04:10:58.907Z,12.20
2018-08-18T04:11:58.916Z,11.80
2018-08-18T04:12:58.911Z,11.00
2018-08-18T04:13:58.882Z,14.30
2018-08-18T04:14:58.877Z,12.70
2018-08-18T04:15:58.855Z,14.40
2018-08-18T04:16:58.841Z,11.30
2018-08-18T04:17:58.852Z,12.30
2018-08-18T04:18:58.858Z,11.80
2018-08-18T04:19:58.811Z,12.40
2018-08-18T04:20:58.798Z,11.40
2018-08-18T04:21:58.786Z,12.00
2018-08-18T04:22:58.800Z,12.20
2018-08-18T04:23:58.768Z,11.60
2018-08-18T04:24:58.783Z,12.20
2018-08-18T04:25:58.743Z,12.10
2018-08-18T04:26:58.731Z,12.30
2018-08-18T04:27:58.720Z,12.20
2018-08-18T04:28:58.709Z,11.20
2018-08-18T04:29:58.727Z,12.70
2018-08-18T04:30:58.687Z,11.80
2018-08-18T04:31:58.677Z,12.00
2018-08-18T04:32:58.668Z,12.10
2018-08-18T04:33:58.655Z,12.30
2018-08-18T04:34:58.665Z,13.40
2018-08-18T04:35:58.665Z,12.30
2018-08-18T04:36:58.621Z,13.10
2018-08-18T04:37:58.613Z,13.30
2018-08-18T04:38:58.598Z,12.90
2018-08-18T04:39:58.588Z,13.30
2018-08-18T04:40:58.597Z,12.80
2018-08-18T04:41:58.572Z,12.80
2018-08-18T04:42:58.559Z,13.50
2018-08-18T04:43:58.589Z,13.30
2018-08-18T04:44:58.533Z,12.60
2018-08-18T04:45:58.545Z,12.90
2018-08-18T04:46:58.558Z,12.40
2018-08-18T04:47:58.500Z,12.50
2018-08-18T04:48:58.489Z,13.00
2018-08-18T04:49:58.480Z,12.60
2018-08-18T04:50:58.489Z,12.20
2018-08-18T04:51:58.477Z,13.30
2018-08-18T04:52:58.449Z,12.40
2018-08-18T04:53:58.435Z,14.20
2018-08-18T04:54:58.424Z,12.90
2018-08-18T04:55:58.440Z,13.20
2018-08-18T04:56:58.470Z,11.90
2018-08-18T04:57:58.393Z,11.10
2018-08-18T04:58:58.382Z,11.60
2018-08-18T04:59:58.368Z,12.10
2018-08-18T05:00:58.357Z,12.20
2018-08-18T05:01:58.372Z,13.10
2018-08-18T05:02:58.335Z,12.80
2018-08-18T05:03:58.327Z,12.30
2018-08-18T05:04:58.351Z,11.80
2018-08-18T05:05:58.302Z,13.60
2018-08-18T05:06:58.317Z,11.90
2018-08-18T05:07:58.281Z,11.90
2018-08-18T05:08:58.343Z,11.90
2018-08-18T05:09:58.258Z,11.00
2018-08-18T05:10:58.288Z,11.20
2018-08-18T05:11:58.236Z,11.80
2018-08-18T05:12:58.225Z,12.60
2018-08-18T05:13:58.215Z,12.20
2018-08-18T05:14:58.206Z,11.60
2018-08-18T05:15:58.230Z,11.70
2018-08-18T05:16:58.184Z,10.90
2018-08-18T05:17:58.172Z,12.30
2018-08-18T05:18:58.238Z,11.20
2018-08-18T05:19:58.152Z,12.30
2018-08-18T05:20:58.167Z,11.60
2018-08-18T05:21:58.149Z,10.70
2018-08-18T05:22:58.115Z,9.70
2018-08-18T05:23:58.104Z,11.20
2018-08-18T05:24:58.094Z,11.40
2018-08-18T05:25:58.087Z,10.20
2018-08-18T05:26:58.094Z,10.10
2018-08-18T05:27:58.060Z,10.60
2018-08-18T05:28:58.048Z,10.50
2018-08-18T05:29:58.038Z,10.60
2018-08-18T05:30:58.081Z,10.30
2018-08-18T05:31:58.038Z,10.40
2018-08-18T05:32:58.026Z,10.90
2018-08-18T05:33:57.993Z,10.60
2018-08-18T05:34:57.984Z,11.80
2018-08-18T05:35:57.974Z,11.00
2018-08-18T05:36:57.961Z,9.20
2018-08-18T05:37:57.971Z,11.60
2018-08-18T05:38:57.961Z,10.20
2018-08-18T05:39:57.928Z,10.10
2018-08-18T05:40:57.916Z,10.10
2018-08-18T05:41:57.906Z,11.20
2018-08-18T05:42:57.894Z,10.10
2018-08-18T05:43:57.905Z,10.30
2018-08-18T05:44:57.872Z,11.10
2018-08-18T05:45:57.864Z,9.60
2018-08-18T05:46:57.849Z,10.70
2018-08-18T05:47:57.841Z,11.90
2018-08-18T05:48:57.854Z,9.40
2018-08-18T05:49:57.818Z,10.30
2018-08-18T05:50:57.806Z,10.50
2018-08-18T05:51:57.795Z,10.30
2018-08-18T05:52:57.783Z,11.10
2018-08-18T05:53:57.803Z,10.50
2018-08-18T05:54:57.761Z,11.70
2018-08-18T05:55:57.776Z,9.90
2018-08-18T05:56:57.742Z,9.60
2018-08-18T05:57:57.759Z,10.40
2018-08-18T05:58:57.771Z,9.80
2018-08-18T05:59:57.707Z,10.00
2018-08-18T06:00:57.696Z,10.30
2018-08-18T06:01:57.794Z,11.40
2018-08-18T06:02:57.680Z,10.20
2018-08-18T06:03:57.688Z,10.90
2018-08-18T06:04:57.652Z,10.50
2018-08-18T06:05:57.661Z,11.30
2018-08-18T06:06:57.644Z,10.40
2018-08-18T06:07:57.619Z,11.90
2018-08-18T06:08:57.617Z,11.70
2018-08-18T06:09:57.595Z,12.40
2018-08-18T06:10:57.611Z,10.20
2018-08-18T06:11:57.638Z,10.30
2018-08-18T06:12:57.566Z,10.40
2018-08-18T06:13:57.552Z,9.80
2018-08-18T06:14:57.563Z,10.80
2018-08-18T06:15:57.563Z,10.10
2018-08-18T06:16:57.521Z,11.10
2018-08-18T06:17:57.509Z,11.50
2018-08-18T06:18:57.497Z,11.10
2018-08-18T06:19:57.486Z,11.10
2018-08-18T06:20:57.498Z,10.60
2018-08-18T06:21:57.464Z,11.20
2018-08-18T06:22:57.453Z,10.50
2018-08-18T06:23:57.443Z,11.00
2018-08-18T06:24:57.434Z,9.60
2018-08-18T06:25:57.450Z,11.70
2018-08-18T06:26:57.420Z,11.70
2018-08-18T06:27:57.399Z,9.30
2018-08-18T06:28:57.388Z,10.00
2018-08-18T06:29:57.377Z,10.30
2018-08-18T06:30:57.436Z,10.80
2018-08-18T06:31:57.354Z,9.60
2018-08-18T06:32:57.350Z,11.40
2018-08-18T06:33:57.367Z,9.20
2018-08-18T06:34:57.450Z,11.30
2018-08-18T06:35:57.317Z,10.50
2018-08-18T06:36:57.301Z,10.30
2018-08-18T06:37:57.290Z,9.50
2018-08-18T06:38:57.311Z,9.70
2018-08-18T06:39:57.270Z,10.40
2018-08-18T06:40:57.315Z,9.30
2018-08-18T06:41:57.393Z,10.10
2018-08-18T06:42:57.233Z,9.20
2018-08-18T06:43:57.252Z,11.10
2018-08-18T06:44:57.214Z,9.50
2018-08-18T06:45:57.201Z,8.80
2018-08-18T06:46:57.193Z,11.20
2018-08-18T06:47:57.178Z,10.00
2018-08-18T06:48:57.513Z,8.90
2018-08-18T06:49:57.157Z,8.20
2018-08-18T06:50:57.244Z,8.60
2018-08-18T06:51:57.135Z,11.00
2018-08-18T06:52:57.235Z,9.40
2018-08-18T06:53:57.112Z,9.10
2018-08-18T06:54:57.290Z,10.00
2018-08-18T06:55:57.091Z,9.40
2018-08-18T06:56:57.152Z,8.40
2018-08-18T06:57:57.090Z,8.40
2018-08-18T06:58:57.068Z,10.10
2018-08-18T06:59:57.075Z,9.90
2018-08-18T07:00:57.097Z,8.10
2018-08-18T07:01:57.035Z,8.30
2018-08-18T07:02:57.012Z,9.00
2018-08-18T07:03:57.001Z,9.00
2018-08-18T07:04:57.022Z,8.50
2018-08-18T07:05:57.054Z,8.50
2018-08-18T07:06:56.972Z,8.00
2018-08-18T07:07:56.958Z,8.80
2018-08-18T07:08:56.948Z,8.10
2018-08-18T07:09:56.978Z,6.80
2018-08-18T07:10:56.925Z,8.90
2018-08-18T07:11:56.913Z,8.80
2018-08-18T07:12:56.904Z,8.40
2018-08-18T07:13:56.896Z,8.50
2018-08-18T07:14:56.902Z,10.20
2018-08-18T07:15:56.871Z,6.70
2018-08-18T07:16:56.861Z,7.60
2018-08-18T07:17:56.850Z,9.10
2018-08-18T07:18:56.836Z,11.10
2018-08-18T07:19:56.847Z,8.90
2018-08-18T07:20:56.814Z,7.60
2018-08-18T07:21:56.803Z,9.20
2018-08-18T07:22:56.792Z,7.30
2018-08-18T07:23:56.784Z,8.90
2018-08-18T07:24:56.791Z,11.20
2018-08-18T07:25:56.759Z,8.20
2018-08-18T07:26:56.747Z,8.50
2018-08-18T07:27:56.737Z,8.90
2018-08-18T07:28:56.943Z,6.80
2018-08-18T07:29:56.748Z,8.70
2018-08-18T07:30:56.704Z,8.00
2018-08-18T07:31:56.716Z,7.50
2018-08-18T07:32:56.694Z,5.80
2018-08-18T07:33:56.674Z,7.50
2018-08-18T07:34:56.660Z,8.10
2018-08-18T07:35:56.650Z,7.30
2018-08-18T07:36:56.659Z,6.80
2018-08-18T07:37:56.632Z,7.30
2018-08-18T07:38:56.629Z,7.20
2018-08-18T07:39:56.607Z,6.90
2018-08-18T07:40:56.620Z,7.70
2018-08-18T07:41:56.613Z,6.10
2018-08-18T07:42:56.617Z,7.30
2018-08-18T07:43:56.563Z,8.80
2018-08-18T07:44:56.552Z,7.80
2018-08-18T07:45:56.562Z,7.20
2018-08-18T07:46:56.534Z,7.00
2018-08-18T07:47:56.529Z,6.40
2018-08-18T07:48:56.509Z,7.00
2018-08-18T07:49:56.575Z,6.40
2018-08-18T07:50:56.638Z,6.90
2018-08-18T07:51:56.584Z,6.40
2018-08-18T07:52:56.473Z,7.30
2018-08-18T07:53:56.458Z,8.50
2018-08-18T07:54:56.468Z,6.90
2018-08-18T07:55:56.457Z,7.40
2018-08-18T07:56:56.988Z,7.10
2018-08-18T07:57:56.449Z,8.80
2018-08-18T07:58:56.405Z,7.60
2018-08-18T07:59:56.432Z,7.80
2018-08-18T08:00:56.404Z,8.40
2018-08-18T08:01:56.370Z,7.00
2018-08-18T08:02:56.446Z,8.20
2018-08-18T08:03:56.349Z,9.20
2018-08-18T08:04:56.341Z,7.90
2018-08-18T08:05:56.352Z,7.90
2018-08-18T08:06:56.541Z,7.60
2018-08-18T08:07:56.305Z,6.50
2018-08-18T08:08:56.294Z,6.20
2018-08-18T08:09:56.284Z,7.60
2018-08-18T08:10:56.271Z,9.30
2018-08-18T08:11:56.281Z,9.90
2018-08-18T08:12:56.291Z,7.40
2018-08-18T08:20:20.991Z,4.80
2018-08-18T08:21:20.956Z,6.70
2018-08-18T08:22:20.999Z,10.80
2018-08-18T08:23:21.003Z,14.60
2018-08-18T08:24:20.941Z,33.00
2018-08-18T08:25:20.909Z,10.40
2018-08-18T08:26:20.898Z,8.80
2018-08-18T08:27:20.920Z,7.20
2018-08-18T08:28:20.878Z,5.10
2018-08-18T08:29:20.866Z,5.60
2018-08-18T08:30:20.855Z,7.90
2018-08-18T08:31:20.848Z,6.20
2018-08-18T08:32:20.857Z,4.70
2018-08-18T08:33:20.824Z,6.60
2018-08-18T08:34:20.813Z,7.50
2018-08-18T08:35:20.801Z,5.40
2018-08-18T08:36:20.811Z,4.40
2018-08-18T08:37:20.780Z,6.80
2018-08-18T08:38:20.768Z,7.00
2018-08-18T08:39:20.760Z,7.20
2018-08-18T08:40:20.748Z,6.40
2018-08-18T08:41:20.768Z,5.30
2018-08-18T08:42:20.727Z,5.40
2018-08-18T08:43:20.858Z,6.50
2018-08-18T08:44:20.704Z,5.60
2018-08-18T08:45:20.693Z,4.90
2018-08-18T08:46:20.712Z,5.80
2018-08-18T08:47:20.671Z,8.30
2018-08-18T08:48:20.660Z,5.10
2018-08-18T08:49:20.648Z,5.30
2018-08-18T08:50:20.639Z,5.50
2018-08-18T08:51:20.648Z,5.20
2018-08-18T08:52:20.621Z,4.60
2018-08-18T08:53:20.633Z,4.60
2018-08-18T08:54:20.593Z,6.30
2018-08-18T08:55:20.582Z,4.90
2018-08-18T08:56:20.571Z,5.60
2018-08-18T08:57:20.559Z,5.40
2018-08-18T08:58:20.578Z,5.90
2018-08-18T08:59:20.537Z,5.10
2018-08-18T09:00:20.529Z,4.90
2018-08-18T09:01:20.515Z,4.80
2018-08-18T09:02:20.504Z,4.50
2018-08-18T09:03:20.673Z,7.20
2018-08-18T09:04:20.483Z,6.50
2018-08-18T09:05:20.471Z,6.70
2018-08-18T09:06:20.461Z,5.00
2018-08-18T09:07:20.452Z,5.30
2018-08-18T09:08:20.458Z,6.00
2018-08-18T09:09:20.428Z,4.80
2018-08-18T09:10:20.477Z,5.80
2018-08-18T09:11:20.405Z,5.10
2018-08-18T09:12:20.394Z,5.30
2018-08-18T09:13:20.408Z,7.30
2018-08-18T09:14:20.392Z,5.60
2018-08-18T09:15:20.360Z,6.00
2018-08-18T09:16:20.348Z,4.10
2018-08-18T09:17:20.338Z,4.70
2018-08-18T09:18:20.356Z,5.20
2018-08-18T09:19:20.314Z,5.20
2018-08-18T09:20:20.304Z,5.80
2018-08-18T09:21:20.293Z,6.60
2018-08-18T09:22:20.287Z,5.20
2018-08-18T09:23:20.307Z,6.50
2018-08-18T09:24:20.261Z,5.00
2018-08-18T09:25:20.250Z,5.80
2018-08-18T09:26:20.248Z,5.40
2018-08-18T09:27:20.228Z,5.30
2018-08-18T09:28:20.249Z,5.40
2018-08-18T09:29:20.208Z,5.20
2018-08-18T09:30:20.199Z,5.70
2018-08-18T09:31:20.188Z,5.00
2018-08-18T09:32:20.173Z,5.10
2018-08-18T09:33:20.195Z,5.20
2018-08-18T09:34:20.152Z,5.70
2018-08-18T09:35:20.147Z,5.50
2018-08-18T09:36:20.227Z,5.20
2018-08-18T09:37:20.121Z,6.30
2018-08-18T09:38:20.150Z,6.40
2018-08-18T09:39:20.100Z,5.40
2018-08-18T09:40:20.091Z,5.60
2018-08-18T09:41:20.157Z,4.90
2018-08-18T09:42:20.071Z,6.60
2018-08-18T09:43:20.087Z,6.80
2018-08-18T09:44:20.050Z,4.80
2018-08-18T09:45:20.041Z,4.30
2018-08-18T09:46:20.071Z,5.00
2018-08-18T09:47:20.017Z,10.10
2018-08-18T09:48:20.196Z,5.30
2018-08-18T09:49:20.019Z,5.00
2018-08-18T09:50:20.002Z,5.70
2018-08-18T09:51:19.971Z,5.70
2018-08-18T09:52:19.964Z,4.70
2018-08-18T09:53:19.969Z,7.20
2018-08-18T09:54:19.938Z,4.80
2018-08-18T09:55:19.928Z,5.90
2018-08-18T09:56:19.916Z,6.00
2018-08-18T09:57:19.904Z,4.00
2018-08-18T09:58:19.917Z,5.80
2018-08-18T09:59:19.979Z,4.80
2018-08-18T10:00:19.897Z,5.70
2018-08-18T10:01:19.861Z,5.80
2018-08-18T10:02:19.850Z,7.60
2018-08-18T10:03:19.863Z,6.50
2018-08-18T10:04:19.829Z,6.30
2018-08-18T10:05:19.819Z,4.60
2018-08-18T10:06:19.884Z,4.80
2018-08-18T10:07:19.806Z,3.90
2018-08-18T10:08:19.816Z,7.00
2018-08-18T10:09:19.799Z,5.50
2018-08-18T10:10:19.765Z,7.20
2018-08-18T10:11:19.759Z,6.10
2018-08-18T10:12:19.778Z,6.00
2018-08-18T10:13:19.761Z,5.10
2018-08-18T10:14:19.780Z,5.80
2018-08-18T10:15:19.733Z,5.30
2018-08-18T10:16:19.699Z,5.20
2018-08-18T10:17:19.688Z,6.80
2018-08-18T10:18:19.677Z,7.20
2018-08-18T10:19:19.687Z,4.60
2018-08-18T10:20:19.655Z,5.00
2018-08-18T10:21:19.667Z,5.50
2018-08-18T10:22:19.635Z,5.40
2018-08-18T10:23:19.625Z,4.40
2018-08-18T10:24:19.614Z,4.40
2018-08-18T10:25:19.632Z,6.40
2018-08-18T10:26:19.592Z,5.70
2018-08-18T10:27:19.585Z,5.50
2018-08-18T10:28:19.571Z,4.20
2018-08-18T10:29:19.562Z,5.90
2018-08-18T10:30:19.570Z,5.50
2018-08-18T10:31:19.539Z,4.90
2018-08-18T10:32:19.549Z,6.60
2018-08-18T10:33:19.566Z,6.90
2018-08-18T10:34:19.510Z,5.00
2018-08-18T10:35:19.517Z,5.60
2018-08-18T10:36:19.484Z,5.60
2018-08-18T10:37:19.473Z,4.60
2018-08-18T10:38:19.463Z,4.90
2018-08-18T10:39:19.459Z,4.80
2018-08-18T10:40:19.463Z,6.10
2018-08-18T10:41:19.455Z,6.00
2018-08-18T10:42:19.421Z,5.10
2018-08-18T10:43:19.412Z,8.20
2018-08-18T10:44:19.425Z,4.80
2018-08-18T10:45:19.387Z,7.20
2018-08-18T10:46:19.377Z,5.10
2018-08-18T10:47:19.365Z,4.70
2018-08-18T10:48:19.355Z,7.00
2018-08-18T10:49:19.365Z,5.70
2018-08-18T10:50:19.337Z,5.90
2018-08-18T10:51:19.323Z,5.40
2018-08-18T10:52:19.313Z,6.10
2018-08-18T10:53:19.324Z,5.50
2018-08-18T10:54:19.291Z,6.70
2018-08-18T10:55:19.302Z,24.30
2018-08-18T10:56:19.273Z,6.00
2018-08-18T10:57:19.262Z,5.60
2018-08-18T10:58:19.250Z,5.40
2018-08-18T10:59:19.239Z,5.60
2018-08-18T11:00:19.257Z,5.20
2018-08-18T11:01:19.219Z,6.50
2018-08-18T11:02:19.212Z,6.00
2018-08-18T11:03:19.199Z,5.40
2018-08-18T11:04:19.201Z,5.20
2018-08-18T11:05:19.197Z,6.90
2018-08-18T11:06:19.165Z,5.90
2018-08-18T11:07:19.178Z,5.90
2018-08-18T11:08:19.145Z,5.90
2018-08-18T11:09:19.134Z,6.50
2018-08-18T11:10:19.154Z,6.30
2018-08-18T11:11:19.114Z,5.50
2018-08-18T11:12:19.104Z,6.20
2018-08-18T11:13:19.104Z,4.90
2018-08-18T11:14:19.090Z,4.80
2018-08-18T11:15:19.103Z,5.20
2018-08-18T11:16:19.069Z,7.00
2018-08-18T11:17:19.085Z,4.50
2018-08-18T11:18:19.055Z,4.90
2018-08-18T11:19:19.048Z,11.40
2018-08-18T11:20:19.083Z,16.40
2018-08-18T11:21:19.103Z,5.20
2018-08-18T11:22:19.024Z,5.10
2018-08-18T11:23:19.019Z,5.60
2018-08-18T11:24:19.129Z,5.00
2018-08-18T11:25:19.023Z,5.50
2018-08-18T11:26:19.086Z,23.20
2018-08-18T11:27:18.983Z,6.30
2018-08-18T11:28:19.202Z,3.70
2018-08-18T11:29:18.978Z,4.50
2018-08-18T11:30:18.961Z,4.40
2018-08-18T11:31:19.230Z,4.10
2018-08-18T11:32:18.952Z,3.30
2018-08-18T11:33:18.944Z,5.00
2018-08-18T11:34:19.211Z,4.30
2018-08-18T11:35:19.391Z,4.10
2018-08-18T11:36:19.518Z,4.40
2018-08-18T11:37:19.027Z,11.30
2018-08-18T11:38:19.327Z,4.10
2018-08-18T11:39:19.074Z,4.00
2018-08-18T11:40:19.033Z,3.60
2018-08-18T11:41:19.051Z,3.80
2018-08-18T11:42:19.228Z,4.60
2018-08-18T11:43:18.993Z,3.90
2018-08-18T11:44:18.899Z,5.10
2018-08-18T11:45:18.894Z,4.90
2018-08-18T11:46:18.892Z,6.10
2018-08-18T11:47:18.891Z,4.20
2018-08-18T11:48:18.872Z,5.30
2018-08-18T11:49:18.895Z,5.00
2018-08-18T11:50:18.827Z,3.80
2018-08-18T11:51:18.819Z,4.80
2018-08-18T11:52:18.811Z,5.00
2018-08-18T11:53:18.810Z,5.20
2018-08-18T11:54:18.825Z,3.60
2018-08-18T11:55:18.782Z,4.80
2018-08-18T11:56:18.794Z,4.40
2018-08-18T11:57:18.766Z,4.90
2018-08-18T11:58:18.768Z,3.90
2018-08-18T11:59:18.769Z,5.50
2018-08-18T12:00:18.736Z,3.90
2018-08-18T12:01:18.752Z,6.60
2018-08-18T12:02:18.731Z,4.90
2018-08-18T12:03:18.736Z,5.70
2018-08-18T12:04:18.729Z,5.30
2018-08-18T12:05:18.690Z,3.60
2018-08-18T12:06:18.699Z,6.20
2018-08-18T12:07:18.666Z,4.80
2018-08-18T12:08:18.657Z,5.90
2018-08-18T12:09:19.094Z,4.60
2018-08-18T12:10:18.636Z,5.00
2018-08-18T12:11:18.630Z,4.90
2018-08-18T12:12:18.615Z,4.60
2018-08-18T12:13:18.606Z,5.90
2018-08-18T12:14:18.618Z,5.60
2018-08-18T12:15:18.587Z,5.90
2018-08-18T12:16:18.598Z,5.60
2018-08-18T12:17:18.566Z,5.80
2018-08-18T12:18:18.557Z,4.30
2018-08-18T12:19:18.547Z,3.90
2018-08-18T12:20:18.563Z,5.90
2018-08-18T12:21:18.550Z,6.90
2018-08-18T12:22:18.578Z,4.20
2018-08-18T12:23:18.506Z,4.80
2018-08-18T12:24:18.497Z,5.90
2018-08-18T12:25:18.486Z,5.60
2018-08-18T12:26:18.497Z,5.70
2018-08-18T12:27:18.467Z,6.50
2018-08-18T12:28:18.456Z,5.40
2018-08-18T12:29:18.447Z,6.00
2018-08-18T12:30:18.440Z,4.90
2018-08-18T12:31:18.448Z,4.80
2018-08-18T12:32:18.418Z,6.90
2018-08-18T12:33:18.408Z,5.40
2018-08-18T12:34:18.418Z,5.40
2018-08-18T12:35:18.388Z,6.70
2018-08-18T12:36:18.471Z,5.10
2018-08-18T12:37:18.377Z,6.00
2018-08-18T12:38:18.358Z,8.00
2018-08-18T12:39:18.376Z,5.00
2018-08-18T12:40:18.341Z,6.30
2018-08-18T12:41:18.329Z,6.10
2018-08-18T12:42:18.326Z,4.40
2018-08-18T12:43:18.311Z,4.30
2018-08-18T12:44:18.320Z,4.10
2018-08-18T12:45:18.287Z,3.80
2018-08-18T12:46:18.279Z,5.20
2018-08-18T12:47:18.291Z,9.30
2018-08-18T12:48:18.258Z,45.10
2018-08-18T12:49:18.247Z,4.90
2018-08-18T12:50:18.531Z,4.30
2018-08-18T12:51:18.229Z,4.20
2018-08-18T12:52:18.221Z,3.70
2018-08-18T12:53:18.212Z,9.00
2018-08-18T13:26:01.640Z,5.20
2018-08-18T13:27:01.613Z,6.00
2018-08-18T13:28:01.603Z,4.60
2018-08-18T13:29:01.593Z,3.50
2018-08-18T13:30:01.598Z,5.10
2018-08-18T13:31:01.572Z,5.20
2018-08-18T13:32:01.561Z,3.80
2018-08-18T13:33:01.557Z,5.80
2018-08-18T13:34:01.542Z,5.00
2018-08-18T13:50:00.821Z,2.50
2018-08-18T13:51:00.880Z,3.90
2018-08-18T13:52:00.784Z,3.50
2018-08-18T13:53:00.790Z,5.00
2018-08-18T13:54:00.760Z,3.90
2018-08-18T13:55:00.746Z,6.80
2018-08-18T13:56:00.736Z,6.20
2018-08-18T13:57:00.740Z,3.60
2018-08-18T13:58:00.718Z,5.00
2018-08-18T13:59:00.703Z,5.50
2018-08-18T14:00:00.693Z,5.80
2018-08-18T14:01:00.681Z,4.70
2018-08-18T14:02:00.691Z,5.20
2018-08-18T14:03:00.660Z,3.80